Aberdeen, WA

3:35 PM PST on February 11, 2016 (GMT -0800)
Central Park 2 | | Change Station
CLOSE
Current Station
Personal Weather Station
Location: Aberdeen, WA
Elevation: 33 ft
Nearby Weather Stations

Elev 33 ft 46.97 °N, 123.72 °W | Updated 14 minutes ago

Rain
Rain
53.2 °F
Feels Like 53.2 °F
N
1.7
Wind Variable Wind from SSE

Today
High -- | Low -- °F
--% Chance of Precip.
Yesterday
High -- | Low -- °F
Precip. -- in
Pressure 30.07 in
Visibility 6.0 miles
Clouds Mostly Cloudy 2700 ft
Overcast 3300 ft
Dew Point 53 °F
Humidity 99%
Rainfall 0.18 in
Snow Depth Not available.
7:26 AM 5:32 PM
Waxing Crescent, 15% visible
SPECI KHQM 112317Z AUTO 04006KT 6SM -RA BR BKN027 OVC033 11/11 A3007 RMK AO2 P0001 T01110111
Pressure 30.07 in
Visibility 6.0 miles
Clouds Mostly Cloudy 2700 ft
Overcast 3300 ft
Dew Point 53 °F
Humidity 99%
Rainfall 0.18 in
Snow Depth Not available.
7:26 AM 5:32 PM
Waxing Crescent, 15% visible
SPECI KHQM 112317Z AUTO 04006KT 6SM -RA BR BKN027 OVC033 11/11 A3007 RMK AO2 P0001 T01110111

10-Day Weather Forecast

Almanac

Astronomy

Feb. 11, 2016 Rise Set
Actual Time
Civil Twilight
Nautical Twilight
Astronomical Twilight
Moon
Length of Visible Light
Length of Day
Tomorrow will be .
, % of the Moon is Illuminated

Today's Extremes

State Highs State Lows

Community

WunderPhotos

Upload Photos

1,892,181 photos uploaded!

WunderBlog® & News

Nearby

Air Quality

  Air Quality AQ Index Pollutant
Not available.

Snow Depth

Station Depth Elevation

Earthquake Activity

City Distance Mag. Time & Date
Minimum magnitude displayed is 2.5.

Coastal Water Temperatures

Place Temperature

Stations

Nearby Weather Stations

Station Location Temp. Windchill Dew Point Humidity Wind Precip. Elev Updated Type
                   

Watches & Warnings

There are currently no watches in effect.